sensor_id;sensor_type;location;lat;lon;timestamp;pressure;altitude;pressure_sealevel;temperature;humidity
47166;BME280;32930;51.112;13.762;2023-05-24T00:00:07;99592.78;;;14.23;79.20
47166;BME280;32930;51.112;13.762;2023-05-24T00:05:11;99606.50;;;14.27;81.48
47166;BME280;32930;51.112;13.762;2023-05-24T00:23:31;99611.72;;;14.21;84.91
47166;BME280;32930;51.112;13.762;2023-05-24T00:25:56;99613.50;;;14.14;83.72
47166;BME280;32930;51.112;13.762;2023-05-24T00:28:22;99613.59;;;14.03;83.02
47166;BME280;32930;51.112;13.762;2023-05-24T00:30:47;99619.44;;;14.24;80.91
47166;BME280;32930;51.112;13.762;2023-05-24T00:33:13;99619.63;;;14.04;82.35
47166;BME280;32930;51.112;13.762;2023-05-24T00:35:40;99613.59;;;14.02;82.38
47166;BME280;32930;51.112;13.762;2023-05-24T00:38:05;99620.44;;;14.07;83.46
47166;BME280;32930;51.112;13.762;2023-05-24T00:40:31;99621.38;;;13.96;81.35
47166;BME280;32930;51.112;13.762;2023-05-24T00:42:56;99628.28;;;13.97;82.04
47166;BME280;32930;51.112;13.762;2023-05-24T00:47:55;99625.69;;;13.97;81.89
47166;BME280;32930;51.112;13.762;2023-05-24T00:50:23;99623.13;;;13.95;83.00
47166;BME280;32930;51.112;13.762;2023-05-24T00:52:50;99623.84;;;14.11;80.75
47166;BME280;32930;51.112;13.762;2023-05-24T00:55:16;99624.78;;;14.02;82.18
47166;BME280;32930;51.112;13.762;2023-05-24T00:57:42;99628.19;;;14.03;82.08
47166;BME280;32930;51.112;13.762;2023-05-24T01:00:08;99628.25;;;13.98;82.00
47166;BME280;32930;51.112;13.762;2023-05-24T01:13:16;99646.38;;;13.89;80.24
47166;BME280;32930;51.112;13.762;2023-05-24T01:33:54;99652.50;;;13.68;81.11
47166;BME280;32930;51.112;13.762;2023-05-24T01:36:19;99657.59;;;13.80;80.06
47166;BME280;32930;51.112;13.762;2023-05-24T01:38:45;99648.22;;;13.72;79.57
47166;BME280;32930;51.112;13.762;2023-05-24T01:41:40;99654.22;;;13.67;79.05
47166;BME280;32930;51.112;13.762;2023-05-24T01:46:52;99651.66;;;13.66;75.92
47166;BME280;32930;51.112;13.762;2023-05-24T01:49:33;99656.75;;;13.81;75.17
47166;BME280;32930;51.112;13.762;2023-05-24T01:52:07;99654.28;;;13.60;75.50
47166;BME280;32930;51.112;13.762;2023-05-24T01:54:47;99652.63;;;13.53;75.31
47166;BME280;32930;51.112;13.762;2023-05-24T01:57:18;99657.72;;;13.57;76.79
47166;BME280;32930;51.112;13.762;2023-05-24T01:59:57;99657.72;;;13.62;75.68
47166;BME280;32930;51.112;13.762;2023-05-24T02:02:33;99659.47;;;13.51;76.22
47166;BME280;32930;51.112;13.762;2023-05-24T02:05:01;99656.03;;;13.49;74.47
47166;BME280;32930;51.112;13.762;2023-05-24T02:10:00;99656.06;;;13.42;77.67
47166;BME280;32930;51.112;13.762;2023-05-24T02:12:26;99658.66;;;13.47;76.98
47166;BME280;32930;51.112;13.762;2023-05-24T02:14:51;99652.63;;;13.47;76.90
47166;BME280;32930;51.112;13.762;2023-05-24T02:17:18;99650.06;;;13.43;76.73
47166;BME280;32930;51.112;13.762;2023-05-24T02:19:51;99654.41;;;13.23;73.39
47166;BME280;32930;51.112;13.762;2023-05-24T02:22:20;99654.34;;;13.48;75.54
47166;BME280;32930;51.112;13.762;2023-05-24T02:32:33;99652.72;;;13.28;73.68
47166;BME280;32930;51.112;13.762;2023-05-24T02:37:43;99647.56;;;13.14;74.68
47166;BME280;32930;51.112;13.762;2023-05-24T02:40:08;99644.16;;;13.25;74.62
47166;BME280;32930;51.112;13.762;2023-05-24T03:11:03;99639.91;;;13.02;73.07
47166;BME280;32930;51.112;13.762;2023-05-24T03:13:28;99642.47;;;13.07;74.30
47166;BME280;32930;51.112;13.762;2023-05-24T03:15:54;99640.75;;;12.98;73.81
47166;BME280;32930;51.112;13.762;2023-05-24T03:18:19;99634.75;;;13.04;74.83
47166;BME280;32930;51.112;13.762;2023-05-24T03:20:48;99647.63;;;13.02;73.41
47166;BME280;32930;51.112;13.762;2023-05-24T03:23:25;99651.91;;;12.95;75.15
47166;BME280;32930;51.112;13.762;2023-05-24T03:41:25;99653.59;;;13.15;72.33
47166;BME280;32930;51.112;13.762;2023-05-24T03:43:51;99651.03;;;13.09;74.55
47166;BME280;32930;51.112;13.762;2023-05-24T03:48:58;99656.22;;;12.92;74.73
47166;BME280;32930;51.112;13.762;2023-05-24T03:51:29;99662.25;;;12.89;75.38
47166;BME280;32930;51.112;13.762;2023-05-24T03:54:11;99667.38;;;13.00;72.01
47166;BME280;32930;51.112;13.762;2023-05-24T04:04:38;99669.09;;;12.89;73.75
47166;BME280;32930;51.112;13.762;2023-05-24T04:07:27;99664.78;;;13.03;70.22
47166;BME280;32930;51.112;13.762;2023-05-24T04:09:52;99669.09;;;12.95;72.76
47166;BME280;32930;51.112;13.762;2023-05-24T04:12:18;99678.56;;;12.85;72.62
47166;BME280;32930;51.112;13.762;2023-05-24T04:14:44;99686.28;;;12.93;71.93
47166;BME280;32930;51.112;13.762;2023-05-24T04:19:42;99687.13;;;12.92;72.65
47166;BME280;32930;51.112;13.762;2023-05-24T04:22:08;99686.25;;;13.02;73.08
47166;BME280;32930;51.112;13.762;2023-05-24T04:24:34;99689.69;;;13.03;72.61
47166;BME280;32930;51.112;13.762;2023-05-24T04:27:00;99686.25;;;13.01;74.17
47166;BME280;32930;51.112;13.762;2023-05-24T04:32:08;99693.97;;;13.07;73.73
47166;BME280;32930;51.112;13.762;2023-05-24T04:34:57;99695.75;;;12.89;73.10
47166;BME280;32930;51.112;13.762;2023-05-24T04:37:23;99704.28;;;13.04;72.83
47166;BME280;32930;51.112;13.762;2023-05-24T04:39:49;99700.84;;;12.97;71.91
47166;BME280;32930;51.112;13.762;2023-05-24T04:42:14;99701.72;;;13.05;72.32
47166;BME280;32930;51.112;13.762;2023-05-24T04:44:40;99701.72;;;13.05;71.90
47166;BME280;32930;51.112;13.762;2023-05-24T04:49:39;99703.44;;;12.97;71.85
47166;BME280;32930;51.112;13.762;2023-05-24T04:54:50;99714.59;;;13.08;71.65
47166;BME280;32930;51.112;13.762;2023-05-24T04:57:16;99715.47;;;12.96;72.39
47166;BME280;32930;51.112;13.762;2023-05-24T05:00:02;99712.88;;;12.95;73.46
47166;BME280;32930;51.112;13.762;2023-05-24T05:02:39;99720.59;;;12.96;71.89
47166;BME280;32930;51.112;13.762;2023-05-24T05:10:13;99736.88;;;13.09;71.79
47166;BME280;32930;51.112;13.762;2023-05-24T05:12:39;99739.47;;;13.02;71.94
47166;BME280;32930;51.112;13.762;2023-05-24T05:15:05;99736.03;;;13.03;72.37
47166;BME280;32930;51.112;13.762;2023-05-24T05:20:04;99736.88;;;13.18;69.54
47166;BME280;32930;51.112;13.762;2023-05-24T05:22:30;99734.31;;;13.09;71.21
47166;BME280;32930;51.112;13.762;2023-05-24T05:24:56;99740.34;;;12.93;70.29
47166;BME280;32930;51.112;13.762;2023-05-24T05:27:21;99742.88;;;13.19;72.29
47166;BME280;32930;51.112;13.762;2023-05-24T05:29:47;99741.16;;;13.10;72.95
47166;BME280;32930;51.112;13.762;2023-05-24T05:32:13;99730.84;;;13.32;69.97
47166;BME280;32930;51.112;13.762;2023-05-24T05:34:38;99736.00;;;13.32;70.16
47166;BME280;32930;51.112;13.762;2023-05-24T05:37:04;99742.03;;;13.26;70.37
47166;BME280;32930;51.112;13.762;2023-05-24T05:39:30;99737.69;;;13.36;68.75
47166;BME280;32930;51.112;13.762;2023-05-24T05:41:58;99743.75;;;13.15;70.00
47166;BME280;32930;51.112;13.762;2023-05-24T05:44:24;99735.13;;;13.17;71.21
47166;BME280;32930;51.112;13.762;2023-05-24T05:46:49;99747.16;;;13.29;69.49
47166;BME280;32930;51.112;13.762;2023-05-24T05:49:15;99744.59;;;13.37;67.78
47166;BME280;32930;51.112;13.762;2023-05-24T05:51:43;99743.66;;;13.52;68.96
47166;BME280;32930;51.112;13.762;2023-05-24T05:54:23;99742.03;;;13.28;68.58
47166;BME280;32930;51.112;13.762;2023-05-24T05:57:07;99742.00;;;13.35;67.02
47166;BME280;32930;51.112;13.762;2023-05-24T05:59:35;99752.31;;;13.26;68.80
47166;BME280;32930;51.112;13.762;2023-05-24T06:02:03;99747.13;;;13.41;70.92
47166;BME280;32930;51.112;13.762;2023-05-24T06:04:30;99741.09;;;13.56;68.90
47166;BME280;32930;51.112;13.762;2023-05-24T06:06:55;99749.59;;;13.71;69.00
47166;BME280;32930;51.112;13.762;2023-05-24T06:09:21;99749.56;;;13.84;68.49
47166;BME280;32930;51.112;13.762;2023-05-24T06:11:47;99752.16;;;13.75;68.30
47166;BME280;32930;51.112;13.762;2023-05-24T06:14:15;99751.22;;;13.91;67.85
47166;BME280;32930;51.112;13.762;2023-05-24T06:16:43;99759.84;;;13.86;69.21
47166;BME280;32930;51.112;13.762;2023-05-24T06:19:13;99753.00;;;13.77;66.31
47166;BME280;32930;51.112;13.762;2023-05-24T06:21:39;99754.59;;;14.07;67.64
47166;BME280;32930;51.112;13.762;2023-05-24T06:24:11;99758.06;;;14.03;67.31
47166;BME280;32930;51.112;13.762;2023-05-24T06:26:37;99765.63;;;14.28;67.20
47166;BME280;32930;51.112;13.762;2023-05-24T06:29:03;99766.72;;;13.85;66.92
47166;BME280;32930;51.112;13.762;2023-05-24T06:31:28;99764.94;;;14.01;67.90
47166;BME280;32930;51.112;13.762;2023-05-24T06:33:54;99775.34;;;13.80;66.49
47166;BME280;32930;51.112;13.762;2023-05-24T06:36:19;99760.72;;;13.82;66.53
47166;BME280;32930;51.112;13.762;2023-05-24T06:38:45;99771.84;;;13.93;67.77
47166;BME280;32930;51.112;13.762;2023-05-24T06:41:11;99771.78;;;14.02;67.31
47166;BME280;32930;51.112;13.762;2023-05-24T06:43:38;99764.88;;;14.10;66.91
47166;BME280;32930;51.112;13.762;2023-05-24T06:46:06;99761.44;;;14.11;63.87
47166;BME280;32930;51.112;13.762;2023-05-24T06:48:32;99769.13;;;14.18;64.58
47166;BME280;32930;51.112;13.762;2023-05-24T06:50:58;99774.13;;;14.51;65.11
47166;BME280;32930;51.112;13.762;2023-05-24T06:53:23;99768.75;;;14.79;65.71
47166;BME280;32930;51.112;13.762;2023-05-24T06:55:49;99780.56;;;15.04;61.82
47166;BME280;32930;51.112;13.762;2023-05-24T07:00:47;99776.53;;;14.73;62.08
47166;BME280;32930;51.112;13.762;2023-05-24T07:03:14;99763.78;;;14.48;64.36
47166;BME280;32930;51.112;13.762;2023-05-24T07:13:30;99791.34;;;14.43;62.98
47166;BME280;32930;51.112;13.762;2023-05-24T07:15:56;99785.47;;;14.20;63.56
47166;BME280;32930;51.112;13.762;2023-05-24T07:20:54;99786.25;;;14.28;65.76
47166;BME280;32930;51.112;13.762;2023-05-24T07:23:19;99787.25;;;14.05;64.77
47166;BME280;32930;51.112;13.762;2023-05-24T07:25:45;99783.78;;;14.19;65.87
47166;BME280;32930;51.112;13.762;2023-05-24T07:28:11;99791.47;;;14.23;65.69
47166;BME280;32930;51.112;13.762;2023-05-24T07:30:38;99799.19;;;14.22;66.19
47166;BME280;32930;51.112;13.762;2023-05-24T07:33:04;99798.34;;;14.21;65.52
47166;BME280;32930;51.112;13.762;2023-05-24T07:43:13;99797.72;;;13.73;65.86
47166;BME280;32930;51.112;13.762;2023-05-24T07:45:38;99801.97;;;13.88;66.03
47166;BME280;32930;51.112;13.762;2023-05-24T07:48:04;99807.13;;;13.88;66.68
47166;BME280;32930;51.112;13.762;2023-05-24T07:50:30;99801.19;;;13.63;63.94
47166;BME280;32930;51.112;13.762;2023-05-24T07:52:56;99807.13;;;13.88;65.85
47166;BME280;32930;51.112;13.762;2023-05-24T07:55:22;99804.66;;;13.54;63.19
47166;BME280;32930;51.112;13.762;2023-05-24T07:57:47;99814.09;;;13.66;63.84
47166;BME280;32930;51.112;13.762;2023-05-24T08:00:16;99809.75;;;13.79;64.15
47166;BME280;32930;51.112;13.762;2023-05-24T08:02:42;99810.66;;;13.56;64.76
47166;BME280;32930;51.112;13.762;2023-05-24T08:05:11;99819.22;;;13.67;63.61
47166;BME280;32930;51.112;13.762;2023-05-24T08:07:37;99818.38;;;13.65;65.07
47166;BME280;32930;51.112;13.762;2023-05-24T08:10:03;99820.94;;;13.70;65.52
47166;BME280;32930;51.112;13.762;2023-05-24T08:12:28;99826.94;;;13.74;65.24
47166;BME280;32930;51.112;13.762;2023-05-24T08:14:57;99820.94;;;13.73;63.47
47166;BME280;32930;51.112;13.762;2023-05-24T08:17:23;99822.63;;;13.77;64.98
47166;BME280;32930;51.112;13.762;2023-05-24T08:19:48;99823.41;;;13.93;63.52
47166;BME280;32930;51.112;13.762;2023-05-24T08:22:14;99828.63;;;13.82;64.67
47166;BME280;32930;51.112;13.762;2023-05-24T08:24:40;99829.50;;;13.78;64.01
47166;BME280;32930;51.112;13.762;2023-05-24T08:27:08;99832.09;;;13.71;61.95
47166;BME280;32930;51.112;13.762;2023-05-24T08:29:37;99827.81;;;13.65;63.35
47166;BME280;32930;51.112;13.762;2023-05-24T08:32:06;99821.69;;;13.95;63.47
47166;BME280;32930;51.112;13.762;2023-05-24T08:34:37;99824.38;;;13.75;62.52
47166;BME280;32930;51.112;13.762;2023-05-24T08:37:05;99829.44;;;13.92;64.91
47166;BME280;32930;51.112;13.762;2023-05-24T08:39:33;99825.97;;;14.07;63.00
47166;BME280;32930;51.112;13.762;2023-05-24T08:42:02;99830.28;;;14.00;64.16
47166;BME280;32930;51.112;13.762;2023-05-24T08:44:29;99831.94;;;14.09;62.90
47166;BME280;32930;51.112;13.762;2023-05-24T08:46:57;99831.13;;;14.04;62.88
47166;BME280;32930;51.112;13.762;2023-05-24T08:49:23;99834.56;;;14.07;62.69
47166;BME280;32930;51.112;13.762;2023-05-24T08:51:51;99832.03;;;13.89;60.53
47166;BME280;32930;51.112;13.762;2023-05-24T08:54:20;99830.28;;;13.96;62.42
47166;BME280;32930;51.112;13.762;2023-05-24T08:56:50;99830.25;;;14.05;61.50
47166;BME280;32930;51.112;13.762;2023-05-24T08:59:15;99832.81;;;14.08;62.60
47166;BME280;32930;51.112;13.762;2023-05-24T09:01:43;99838.78;;;14.21;63.49
47166;BME280;32930;51.112;13.762;2023-05-24T09:04:13;99837.16;;;14.01;61.33
47166;BME280;32930;51.112;13.762;2023-05-24T09:06:39;99836.25;;;14.08;61.54
47166;BME280;32930;51.112;13.762;2023-05-24T09:09:06;99843.13;;;14.12;61.53
47166;BME280;32930;51.112;13.762;2023-05-24T09:11:34;99835.25;;;14.34;60.72
47166;BME280;32930;51.112;13.762;2023-05-24T09:16:33;99838.75;;;14.24;61.47
47166;BME280;32930;51.112;13.762;2023-05-24T09:18:59;99828.50;;;14.13;59.33
47166;BME280;32930;51.112;13.762;2023-05-24T09:21:43;99826.66;;;14.33;61.08
47166;BME280;32930;51.112;13.762;2023-05-24T09:26:49;99838.47;;;14.79;60.42
47166;BME280;32930;51.112;13.762;2023-05-24T09:31:57;99834.81;;;15.04;58.20
47166;BME280;32930;51.112;13.762;2023-05-24T09:34:23;99829.16;;;15.58;57.95
47166;BME280;32930;51.112;13.762;2023-05-24T09:36:54;99834.47;;;15.41;58.50
47166;BME280;32930;51.112;13.762;2023-05-24T09:39:20;99827.59;;;15.42;57.33
47166;BME280;32930;51.112;13.762;2023-05-24T09:41:52;99832.91;;;15.25;55.49
47166;BME280;32930;51.112;13.762;2023-05-24T09:44:26;99833.84;;;15.16;57.15
47166;BME280;32930;51.112;13.762;2023-05-24T09:49:27;99831.91;;;15.38;56.52
47166;BME280;32930;51.112;13.762;2023-05-24T09:51:53;99828.66;;;15.21;56.49
47166;BME280;32930;51.112;13.762;2023-05-24T09:54:19;99832.03;;;15.29;58.33
47166;BME280;32930;51.112;13.762;2023-05-24T09:56:45;99836.34;;;15.27;58.45
47166;BME280;32930;51.112;13.762;2023-05-24T10:01:44;99836.31;;;15.28;56.46
47166;BME280;32930;51.112;13.762;2023-05-24T10:04:10;99833.72;;;16.12;56.45
47166;BME280;32930;51.112;13.762;2023-05-24T10:06:37;99836.53;;;15.93;57.34
47166;BME280;32930;51.112;13.762;2023-05-24T10:09:04;99842.34;;;15.32;55.41
47166;BME280;32930;51.112;13.762;2023-05-24T10:11:36;99848.38;;;15.28;56.79
47166;BME280;32930;51.112;13.762;2023-05-24T10:14:04;99858.44;;;15.59;59.47
47166;BME280;32930;51.112;13.762;2023-05-24T10:16:31;99841.25;;;15.55;54.92
47166;BME280;32930;51.112;13.762;2023-05-24T10:19:00;99838.88;;;15.33;55.33
47166;BME280;32930;51.112;13.762;2023-05-24T10:21:30;99833.53;;;16.27;55.52
47166;BME280;32930;51.112;13.762;2023-05-24T10:24:01;99829.00;;;16.43;53.49
47166;BME280;32930;51.112;13.762;2023-05-24T10:26:30;99836.16;;;16.22;51.68
47166;BME280;32930;51.112;13.762;2023-05-24T10:29:03;99838.03;;;16.10;53.99
47166;BME280;32930;51.112;13.762;2023-05-24T10:31:38;99833.72;;;16.12;51.92
47166;BME280;32930;51.112;13.762;2023-05-24T10:34:08;99835.75;;;15.87;54.14
47166;BME280;32930;51.112;13.762;2023-05-24T10:36:36;99832.25;;;15.92;55.61
47166;BME280;32930;51.112;13.762;2023-05-24T10:39:08;99838.56;;;15.64;56.02
47166;BME280;32930;51.112;13.762;2023-05-24T10:41:39;99830.50;;;15.91;56.16
47166;BME280;32930;51.112;13.762;2023-05-24T10:47:02;99832.44;;;15.74;53.22
47166;BME280;32930;51.112;13.762;2023-05-24T10:52:11;99840.41;;;16.88;52.36
47166;BME280;32930;51.112;13.762;2023-05-24T10:54:38;99846.91;;;16.57;53.41
47166;BME280;32930;51.112;13.762;2023-05-24T10:57:05;99857.50;;;16.40;53.22
47166;BME280;32930;51.112;13.762;2023-05-24T10:59:34;99865.25;;;16.41;53.18
47166;BME280;32930;51.112;13.762;2023-05-24T11:02:06;99854.03;;;16.41;53.39
47166;BME280;32930;51.112;13.762;2023-05-24T11:05:03;99857.56;;;16.37;55.70
47166;BME280;32930;51.112;13.762;2023-05-24T11:07:30;99849.25;;;16.75;50.07
47166;BME280;32930;51.112;13.762;2023-05-24T11:10:08;99850.19;;;16.06;53.02
47166;BME280;32930;51.112;13.762;2023-05-24T11:15:08;99862.22;;;16.07;50.64
47166;BME280;32930;51.112;13.762;2023-05-24T11:20:19;99859.38;;;16.29;52.22
47166;BME280;32930;51.112;13.762;2023-05-24T11:25:32;99854.41;;;16.77;52.36
47166;BME280;32930;51.112;13.762;2023-05-24T11:30:45;99856.56;;;17.06;50.56
47166;BME280;32930;51.112;13.762;2023-05-24T11:35:50;99841.44;;;16.78;50.98
47166;BME280;32930;51.112;13.762;2023-05-24T11:40:57;99839.22;;;17.08;53.51
47166;BME280;32930;51.112;13.762;2023-05-24T11:46:01;99844.00;;;16.81;53.56
47166;BME280;32930;51.112;13.762;2023-05-24T11:48:29;99842.34;;;16.76;53.99
47166;BME280;32930;51.112;13.762;2023-05-24T11:50:55;99847.31;;;16.26;52.03
47166;BME280;32930;51.112;13.762;2023-05-24T11:53:24;99850.63;;;16.37;53.51
47166;BME280;32930;51.112;13.762;2023-05-24T11:55:52;99853.28;;;16.33;54.06
47166;BME280;32930;51.112;13.762;2023-05-24T11:58:23;99851.38;;;16.45;54.79
47166;BME280;32930;51.112;13.762;2023-05-24T12:00:50;99845.13;;;16.62;50.56
47166;BME280;32930;51.112;13.762;2023-05-24T12:05:56;99852.38;;;16.35;54.00
47166;BME280;32930;51.112;13.762;2023-05-24T12:13:33;99859.59;;;16.78;53.20
47166;BME280;32930;51.112;13.762;2023-05-24T12:16:01;99861.69;;;16.49;50.58
47166;BME280;32930;51.112;13.762;2023-05-24T12:18:27;99854.63;;;16.60;51.75
47166;BME280;32930;51.112;13.762;2023-05-24T12:20:56;99854.06;;;16.38;51.31
47166;BME280;32930;51.112;13.762;2023-05-24T12:26:02;99855.66;;;16.50;47.64
47166;BME280;32930;51.112;13.762;2023-05-24T12:31:09;99846.66;;;16.74;51.24
47166;BME280;32930;51.112;13.762;2023-05-24T12:36:18;99855.78;;;17.01;50.79
47166;BME280;32930;51.112;13.762;2023-05-24T12:41:32;99858.03;;;16.65;50.63
47166;BME280;32930;51.112;13.762;2023-05-24T12:46:33;99853.78;;;16.58;50.10
47166;BME280;32930;51.112;13.762;2023-05-24T12:48:59;99856.28;;;16.65;50.84
47166;BME280;32930;51.112;13.762;2023-05-24T12:51:26;99848.72;;;16.49;52.04
47166;BME280;32930;51.112;13.762;2023-05-24T12:53:52;99844.41;;;16.51;52.19
47166;BME280;32930;51.112;13.762;2023-05-24T12:56:18;99843.72;;;16.38;51.82
47166;BME280;32930;51.112;13.762;2023-05-24T12:58:43;99839.25;;;16.48;51.22
47166;BME280;32930;51.112;13.762;2023-05-24T13:01:10;99845.13;;;16.62;51.14
47166;BME280;32930;51.112;13.762;2023-05-24T13:03:39;99845.16;;;16.59;51.54
47166;BME280;32930;51.112;13.762;2023-05-24T13:06:11;99849.88;;;16.29;51.13
47166;BME280;32930;51.112;13.762;2023-05-24T13:08:37;99846.53;;;16.19;50.80
47166;BME280;32930;51.112;13.762;2023-05-24T13:11:04;99842.91;;;16.34;51.66
47166;BME280;32930;51.112;13.762;2023-05-24T13:13:32;99840.56;;;16.17;50.78
47166;BME280;32930;51.112;13.762;2023-05-24T13:15:58;99838.09;;;16.07;51.48
47166;BME280;32930;51.112;13.762;2023-05-24T13:18:24;99831.25;;;16.01;50.89
47166;BME280;32930;51.112;13.762;2023-05-24T13:20:50;99833.75;;;16.09;50.59
47166;BME280;32930;51.112;13.762;2023-05-24T13:23:21;99830.91;;;16.29;53.28
47166;BME280;32930;51.112;13.762;2023-05-24T13:25:56;99831.31;;;16.61;53.29
47166;BME280;32930;51.112;13.762;2023-05-24T13:28:22;99836.16;;;16.83;51.42
47166;BME280;32930;51.112;13.762;2023-05-24T13:30:47;99840.50;;;16.82;53.72
47166;BME280;32930;51.112;13.762;2023-05-24T13:33:13;99829.19;;;16.28;49.72
47166;BME280;32930;51.112;13.762;2023-05-24T13:35:45;99827.28;;;16.40;50.02
47166;BME280;32930;51.112;13.762;2023-05-24T13:38:11;99835.94;;;16.38;51.79
47166;BME280;32930;51.112;13.762;2023-05-24T13:40:38;99833.63;;;16.80;52.14
47166;BME280;32930;51.112;13.762;2023-05-24T13:43:04;99833.72;;;16.72;49.99
47166;BME280;32930;51.112;13.762;2023-05-24T13:45:30;99825.09;;;16.72;50.61
47166;BME280;32930;51.112;13.762;2023-05-24T13:48:00;99824.53;;;16.53;51.42
47166;BME280;32930;51.112;13.762;2023-05-24T13:50:30;99822.47;;;16.73;50.97
47166;BME280;32930;51.112;13.762;2023-05-24T13:52:57;99826.00;;;16.67;49.14
47166;BME280;32930;51.112;13.762;2023-05-24T13:58:00;99828.56;;;16.72;49.28
47166;BME280;32930;51.112;13.762;2023-05-24T14:00:32;99825.56;;;17.00;49.76
47166;BME280;32930;51.112;13.762;2023-05-24T14:03:01;99823.25;;;16.81;49.15
47166;BME280;32930;51.112;13.762;2023-05-24T14:05:27;99823.63;;;16.54;50.87
47166;BME280;32930;51.112;13.762;2023-05-24T14:49:22;99810.50;;;16.66;48.29
47166;BME280;32930;51.112;13.762;2023-05-24T14:51:53;99818.13;;;16.77;49.14
47166;BME280;32930;51.112;13.762;2023-05-24T14:54:21;99819.72;;;16.87;51.56
47166;BME280;32930;51.112;13.762;2023-05-24T14:56:47;99814.13;;;16.54;47.69
47166;BME280;32930;51.112;13.762;2023-05-24T14:59:17;99814.13;;;16.56;48.75
47166;BME280;32930;51.112;13.762;2023-05-24T15:04:16;99813.38;;;16.49;49.15
47166;BME280;32930;51.112;13.762;2023-05-24T15:09:26;99809.78;;;16.56;48.32
47166;BME280;32930;51.112;13.762;2023-05-24T15:11:53;99814.50;;;16.27;47.56
47166;BME280;32930;51.112;13.762;2023-05-24T15:14:26;99817.94;;;16.29;48.40
47166;BME280;32930;51.112;13.762;2023-05-24T15:16:52;99811.06;;;16.26;49.19
47166;BME280;32930;51.112;13.762;2023-05-24T15:19:18;99815.44;;;16.22;48.37
47166;BME280;32930;51.112;13.762;2023-05-24T15:21:49;99816.13;;;16.37;48.59
47166;BME280;32930;51.112;13.762;2023-05-24T15:24:15;99819.84;;;16.17;47.83
47166;BME280;32930;51.112;13.762;2023-05-24T15:26:41;99814.38;;;16.37;50.27
47166;BME280;32930;51.112;13.762;2023-05-24T15:29:10;99814.16;;;16.53;49.90
47166;BME280;32930;51.112;13.762;2023-05-24T15:31:38;99813.47;;;16.41;50.09
47166;BME280;32930;51.112;13.762;2023-05-24T15:34:06;99816.72;;;16.56;49.97
47166;BME280;32930;51.112;13.762;2023-05-24T15:36:32;99816.59;;;16.63;57.42
47166;BME280;32930;51.112;13.762;2023-05-24T15:38:57;99812.09;;;16.78;54.00
47166;BME280;32930;51.112;13.762;2023-05-24T15:41:23;99817.22;;;16.81;49.97
47166;BME280;32930;51.112;13.762;2023-05-24T15:43:52;99816.44;;;16.73;51.22
47166;BME280;32930;51.112;13.762;2023-05-24T15:46:20;99816.38;;;16.80;50.50
47166;BME280;32930;51.112;13.762;2023-05-24T15:48:48;99821.75;;;16.63;50.72
47166;BME280;32930;51.112;13.762;2023-05-24T15:51:14;99816.81;;;16.48;49.89
47166;BME280;32930;51.112;13.762;2023-05-24T15:53:46;99824.69;;;16.40;48.74
47166;BME280;32930;51.112;13.762;2023-05-24T15:56:11;99822.75;;;16.56;49.23
47166;BME280;32930;51.112;13.762;2023-05-24T15:58:37;99820.78;;;16.71;50.12
47166;BME280;32930;51.112;13.762;2023-05-24T16:01:03;99818.22;;;16.69;52.42
47166;BME280;32930;51.112;13.762;2023-05-24T16:06:11;99831.78;;;16.86;49.86
47166;BME280;32930;51.112;13.762;2023-05-24T16:08:37;99824.47;;;16.56;50.42
47166;BME280;32930;51.112;13.762;2023-05-24T16:11:03;99825.94;;;16.75;48.80
47166;BME280;32930;51.112;13.762;2023-05-24T16:13:32;99824.34;;;16.65;50.21
47166;BME280;32930;51.112;13.762;2023-05-24T16:15:58;99818.50;;;16.52;49.73
47166;BME280;32930;51.112;13.762;2023-05-24T16:18:23;99820.41;;;16.38;49.27
47166;BME280;32930;51.112;13.762;2023-05-24T16:20:51;99819.47;;;16.43;50.26
47166;BME280;32930;51.112;13.762;2023-05-24T16:23:20;99816.84;;;16.47;49.93
47166;BME280;32930;51.112;13.762;2023-05-24T16:25:51;99813.53;;;16.35;49.08
47166;BME280;32930;51.112;13.762;2023-05-24T16:28:17;99817.81;;;16.38;49.26
47166;BME280;32930;51.112;13.762;2023-05-24T16:30:51;99814.50;;;16.28;49.08
47166;BME280;32930;51.112;13.762;2023-05-24T16:33:20;99816.34;;;16.20;48.32
47166;BME280;32930;51.112;13.762;2023-05-24T16:35:46;99818.91;;;16.21;48.59
47166;BME280;32930;51.112;13.762;2023-05-24T16:38:43;99811.84;;;16.34;50.09
47166;BME280;32930;51.112;13.762;2023-05-24T16:41:15;99824.94;;;16.24;50.00
47166;BME280;32930;51.112;13.762;2023-05-24T16:43:41;99829.97;;;16.33;50.70
47166;BME280;32930;51.112;13.762;2023-05-24T16:46:06;99824.91;;;16.25;53.11
47166;BME280;32930;51.112;13.762;2023-05-24T16:48:32;99830.09;;;16.25;50.94
47166;BME280;32930;51.112;13.762;2023-05-24T16:51:05;99827.63;;;16.16;51.16
47166;BME280;32930;51.112;13.762;2023-05-24T16:53:33;99826.66;;;16.23;52.28
47166;BME280;32930;51.112;13.762;2023-05-24T16:56:05;99826.69;;;16.21;53.14
47166;BME280;32930;51.112;13.762;2023-05-24T16:58:40;99833.63;;;16.18;53.21
47166;BME280;32930;51.112;13.762;2023-05-24T17:01:22;99831.88;;;16.21;55.29
47166;BME280;32930;51.112;13.762;2023-05-24T17:07:03;99831.88;;;16.20;52.27
47166;BME280;32930;51.112;13.762;2023-05-24T17:09:29;99827.63;;;16.17;50.30
47166;BME280;32930;51.112;13.762;2023-05-24T17:11:54;99831.75;;;16.29;51.99
47166;BME280;32930;51.112;13.762;2023-05-24T17:14:20;99833.59;;;16.21;50.86
47166;BME280;32930;51.112;13.762;2023-05-24T17:16:45;99822.34;;;16.22;52.42
47166;BME280;32930;51.112;13.762;2023-05-24T17:19:11;99826.72;;;16.17;51.93
47166;BME280;32930;51.112;13.762;2023-05-24T17:21:38;99838.81;;;16.16;52.02
47166;BME280;32930;51.112;13.762;2023-05-24T17:24:04;99840.50;;;16.20;53.03
47166;BME280;32930;51.112;13.762;2023-05-24T17:26:29;99847.16;;;16.40;53.50